sensor_id;sensor_type;location;lat;lon;timestamp;P1;durP1;ratioP1;P2;durP2;ratioP2
13743;SDS011;6943;52.368;9.966;2023-02-21T00:01:51;30.33;;;20.30;;
13743;SDS011;6943;52.368;9.966;2023-02-21T00:04:35;32.20;;;22.10;;
13743;SDS011;6943;52.368;9.966;2023-02-21T00:07:19;33.87;;;22.63;;
13743;SDS011;6943;52.368;9.966;2023-02-21T00:10:04;34.80;;;22.47;;
13743;SDS011;6943;52.368;9.966;2023-02-21T00:12:49;35.83;;;24.23;;
13743;SDS011;6943;52.368;9.966;2023-02-21T00:15:34;37.33;;;23.57;;
13743;SDS011;6943;52.368;9.966;2023-02-21T00:18:18;33.37;;;22.60;;
13743;SDS011;6943;52.368;9.966;2023-02-21T00:21:03;36.37;;;22.97;;
13743;SDS011;6943;52.368;9.966;2023-02-21T00:23:47;34.57;;;22.87;;
13743;SDS011;6943;52.368;9.966;2023-02-21T00:26:31;34.83;;;22.93;;
13743;SDS011;6943;52.368;9.966;2023-02-21T00:29:16;34.10;;;23.00;;
13743;SDS011;6943;52.368;9.966;2023-02-21T00:32:00;32.63;;;22.23;;
13743;SDS011;6943;52.368;9.966;2023-02-21T00:34:44;36.97;;;24.10;;
13743;SDS011;6943;52.368;9.966;2023-02-21T00:37:28;36.27;;;23.20;;
13743;SDS011;6943;52.368;9.966;2023-02-21T00:40:13;35.13;;;23.23;;
13743;SDS011;6943;52.368;9.966;2023-02-21T00:42:58;38.77;;;24.57;;
13743;SDS011;6943;52.368;9.966;2023-02-21T00:45:43;37.03;;;23.53;;
13743;SDS011;6943;52.368;9.966;2023-02-21T00:48:27;35.03;;;23.17;;
13743;SDS011;6943;52.368;9.966;2023-02-21T00:51:12;33.93;;;22.37;;
13743;SDS011;6943;52.368;9.966;2023-02-21T00:53:56;36.17;;;23.57;;
13743;SDS011;6943;52.368;9.966;2023-02-21T00:56:40;32.30;;;22.70;;
13743;SDS011;6943;52.368;9.966;2023-02-21T00:59:24;31.57;;;22.43;;
13743;SDS011;6943;52.368;9.966;2023-02-21T01:02:08;33.97;;;22.50;;
13743;SDS011;6943;52.368;9.966;2023-02-21T01:04:53;31.87;;;22.40;;
13743;SDS011;6943;52.368;9.966;2023-02-21T01:07:37;34.53;;;22.27;;
13743;SDS011;6943;52.368;9.966;2023-02-21T01:10:21;32.47;;;22.83;;
13743;SDS011;6943;52.368;9.966;2023-02-21T01:13:05;37.00;;;24.13;;
13743;SDS011;6943;52.368;9.966;2023-02-21T01:15:49;37.80;;;23.40;;
13743;SDS011;6943;52.368;9.966;2023-02-21T01:18:34;34.93;;;23.07;;
13743;SDS011;6943;52.368;9.966;2023-02-21T01:21:19;38.63;;;24.73;;
13743;SDS011;6943;52.368;9.966;2023-02-21T01:24:03;39.17;;;25.07;;
13743;SDS011;6943;52.368;9.966;2023-02-21T01:26:49;37.37;;;25.97;;
13743;SDS011;6943;52.368;9.966;2023-02-21T01:29:33;40.10;;;25.67;;
13743;SDS011;6943;52.368;9.966;2023-02-21T01:32:18;41.33;;;26.20;;
13743;SDS011;6943;52.368;9.966;2023-02-21T01:35:02;37.00;;;25.73;;
13743;SDS011;6943;52.368;9.966;2023-02-21T01:37:46;37.70;;;25.30;;
13743;SDS011;6943;52.368;9.966;2023-02-21T01:40:30;40.73;;;27.03;;
13743;SDS011;6943;52.368;9.966;2023-02-21T01:43:19;36.50;;;25.03;;
13743;SDS011;6943;52.368;9.966;2023-02-21T01:46:05;37.73;;;24.23;;
13743;SDS011;6943;52.368;9.966;2023-02-21T01:48:53;36.57;;;25.07;;
13743;SDS011;6943;52.368;9.966;2023-02-21T01:51:39;35.83;;;24.87;;
13743;SDS011;6943;52.368;9.966;2023-02-21T01:54:25;35.50;;;24.67;;
13743;SDS011;6943;52.368;9.966;2023-02-21T01:57:12;36.90;;;25.60;;
13743;SDS011;6943;52.368;9.966;2023-02-21T01:59:57;38.60;;;25.27;;
13743;SDS011;6943;52.368;9.966;2023-02-21T02:02:47;35.53;;;24.03;;
13743;SDS011;6943;52.368;9.966;2023-02-21T02:05:40;39.97;;;24.73;;
13743;SDS011;6943;52.368;9.966;2023-02-21T02:08:28;39.77;;;26.87;;
13743;SDS011;6943;52.368;9.966;2023-02-21T02:11:25;38.60;;;26.27;;
13743;SDS011;6943;52.368;9.966;2023-02-21T02:14:25;40.73;;;25.93;;
13743;SDS011;6943;52.368;9.966;2023-02-21T02:23:24;46.23;;;27.83;;
13743;SDS011;6943;52.368;9.966;2023-02-21T02:32:06;47.37;;;29.20;;
13743;SDS011;6943;52.368;9.966;2023-02-21T02:35:00;42.73;;;27.10;;
13743;SDS011;6943;52.368;9.966;2023-02-21T02:40:34;46.20;;;27.27;;
13743;SDS011;6943;52.368;9.966;2023-02-21T02:44:30;42.63;;;28.27;;
13743;SDS011;6943;52.368;9.966;2023-02-21T02:46:32;41.83;;;26.93;;
13743;SDS011;6943;52.368;9.966;2023-02-21T02:49:02;44.80;;;28.10;;
13743;SDS011;6943;52.368;9.966;2023-02-21T02:51:32;47.40;;;29.20;;
13743;SDS011;6943;52.368;9.966;2023-02-21T02:53:59;45.47;;;28.87;;
13743;SDS011;6943;52.368;9.966;2023-02-21T02:56:24;52.17;;;28.93;;
13743;SDS011;6943;52.368;9.966;2023-02-21T02:58:54;43.20;;;27.73;;
13743;SDS011;6943;52.368;9.966;2023-02-21T03:06:33;48.13;;;28.93;;
13743;SDS011;6943;52.368;9.966;2023-02-21T03:11:56;42.90;;;27.97;;
13743;SDS011;6943;52.368;9.966;2023-02-21T03:14:29;44.73;;;28.13;;
13743;SDS011;6943;52.368;9.966;2023-02-21T03:17:01;44.30;;;28.30;;
13743;SDS011;6943;52.368;9.966;2023-02-21T03:19:34;46.30;;;28.60;;
13743;SDS011;6943;52.368;9.966;2023-02-21T03:22:04;46.47;;;26.87;;
13743;SDS011;6943;52.368;9.966;2023-02-21T03:24:33;38.60;;;25.27;;
13743;SDS011;6943;52.368;9.966;2023-02-21T03:27:01;42.90;;;27.53;;
13743;SDS011;6943;52.368;9.966;2023-02-21T03:29:30;40.87;;;25.70;;
13743;SDS011;6943;52.368;9.966;2023-02-21T03:32:05;43.40;;;26.57;;
13743;SDS011;6943;52.368;9.966;2023-02-21T03:34:35;47.43;;;27.80;;
13743;SDS011;6943;52.368;9.966;2023-02-21T03:37:03;42.83;;;26.57;;
13743;SDS011;6943;52.368;9.966;2023-02-21T03:39:29;43.30;;;28.47;;
13743;SDS011;6943;52.368;9.966;2023-02-21T03:41:55;41.97;;;26.33;;
13743;SDS011;6943;52.368;9.966;2023-02-21T03:44:20;40.70;;;26.00;;
13743;SDS011;6943;52.368;9.966;2023-02-21T03:46:46;45.83;;;27.20;;
13743;SDS011;6943;52.368;9.966;2023-02-21T03:49:11;40.63;;;26.57;;
13743;SDS011;6943;52.368;9.966;2023-02-21T03:51:37;42.00;;;25.60;;
13743;SDS011;6943;52.368;9.966;2023-02-21T03:54:02;40.00;;;25.50;;
13743;SDS011;6943;52.368;9.966;2023-02-21T03:56:28;41.87;;;27.53;;
13743;SDS011;6943;52.368;9.966;2023-02-21T03:58:53;40.93;;;25.80;;
13743;SDS011;6943;52.368;9.966;2023-02-21T04:01:19;41.03;;;25.20;;
13743;SDS011;6943;52.368;9.966;2023-02-21T04:03:44;38.80;;;24.60;;
13743;SDS011;6943;52.368;9.966;2023-02-21T04:06:09;39.63;;;26.30;;
13743;SDS011;6943;52.368;9.966;2023-02-21T04:08:35;41.10;;;26.30;;
13743;SDS011;6943;52.368;9.966;2023-02-21T04:11:01;37.53;;;25.43;;
13743;SDS011;6943;52.368;9.966;2023-02-21T04:13:26;36.10;;;23.63;;
13743;SDS011;6943;52.368;9.966;2023-02-21T04:15:52;39.63;;;25.10;;
13743;SDS011;6943;52.368;9.966;2023-02-21T04:18:17;36.33;;;23.60;;
13743;SDS011;6943;52.368;9.966;2023-02-21T04:20:43;39.63;;;24.97;;
13743;SDS011;6943;52.368;9.966;2023-02-21T04:23:10;37.70;;;24.37;;
13743;SDS011;6943;52.368;9.966;2023-02-21T04:25:35;38.83;;;24.97;;
13743;SDS011;6943;52.368;9.966;2023-02-21T04:28:01;44.63;;;27.17;;
13743;SDS011;6943;52.368;9.966;2023-02-21T04:30:26;43.13;;;26.63;;
13743;SDS011;6943;52.368;9.966;2023-02-21T04:32:52;43.83;;;28.20;;
13743;SDS011;6943;52.368;9.966;2023-02-21T04:35:17;41.23;;;26.97;;
13743;SDS011;6943;52.368;9.966;2023-02-21T04:37:43;41.47;;;27.13;;
13743;SDS011;6943;52.368;9.966;2023-02-21T04:40:09;42.87;;;26.60;;
13743;SDS011;6943;52.368;9.966;2023-02-21T04:42:35;39.77;;;26.73;;
13743;SDS011;6943;52.368;9.966;2023-02-21T04:45:00;45.00;;;26.10;;
13743;SDS011;6943;52.368;9.966;2023-02-21T04:47:27;42.93;;;26.13;;
13743;SDS011;6943;52.368;9.966;2023-02-21T04:49:52;46.43;;;26.83;;
13743;SDS011;6943;52.368;9.966;2023-02-21T04:52:18;39.73;;;25.00;;
13743;SDS011;6943;52.368;9.966;2023-02-21T04:54:46;43.43;;;26.10;;
13743;SDS011;6943;52.368;9.966;2023-02-21T04:57:13;36.03;;;24.30;;
13743;SDS011;6943;52.368;9.966;2023-02-21T04:59:40;40.17;;;24.53;;
13743;SDS011;6943;52.368;9.966;2023-02-21T05:02:06;41.57;;;25.70;;
13743;SDS011;6943;52.368;9.966;2023-02-21T05:04:32;36.50;;;25.63;;
13743;SDS011;6943;52.368;9.966;2023-02-21T05:06:59;40.77;;;25.53;;
13743;SDS011;6943;52.368;9.966;2023-02-21T05:09:25;39.47;;;25.97;;
13743;SDS011;6943;52.368;9.966;2023-02-21T05:11:51;35.43;;;25.07;;
13743;SDS011;6943;52.368;9.966;2023-02-21T05:14:16;36.03;;;24.20;;
13743;SDS011;6943;52.368;9.966;2023-02-21T05:16:42;38.70;;;27.13;;
13743;SDS011;6943;52.368;9.966;2023-02-21T05:19:08;38.13;;;23.77;;
13743;SDS011;6943;52.368;9.966;2023-02-21T05:21:34;35.87;;;24.33;;
13743;SDS011;6943;52.368;9.966;2023-02-21T05:24:06;36.03;;;24.57;;
13743;SDS011;6943;52.368;9.966;2023-02-21T05:26:33;39.07;;;23.90;;
13743;SDS011;6943;52.368;9.966;2023-02-21T05:29:00;36.20;;;23.57;;
13743;SDS011;6943;52.368;9.966;2023-02-21T05:31:27;34.90;;;23.23;;
13743;SDS011;6943;52.368;9.966;2023-02-21T05:33:52;36.63;;;24.07;;
13743;SDS011;6943;52.368;9.966;2023-02-21T05:36:18;34.23;;;23.30;;
13743;SDS011;6943;52.368;9.966;2023-02-21T05:38:45;37.33;;;23.93;;
13743;SDS011;6943;52.368;9.966;2023-02-21T05:41:15;34.07;;;23.27;;
13743;SDS011;6943;52.368;9.966;2023-02-21T05:43:42;32.00;;;22.13;;
13743;SDS011;6943;52.368;9.966;2023-02-21T05:46:16;34.63;;;21.77;;
13743;SDS011;6943;52.368;9.966;2023-02-21T05:48:43;35.77;;;22.10;;
13743;SDS011;6943;52.368;9.966;2023-02-21T05:51:09;32.13;;;22.23;;
13743;SDS011;6943;52.368;9.966;2023-02-21T05:53:34;33.73;;;22.60;;
13743;SDS011;6943;52.368;9.966;2023-02-21T05:56:00;37.60;;;23.47;;
13743;SDS011;6943;52.368;9.966;2023-02-21T05:58:25;31.20;;;21.53;;
13743;SDS011;6943;52.368;9.966;2023-02-21T06:00:51;36.07;;;23.73;;
13743;SDS011;6943;52.368;9.966;2023-02-21T06:03:16;34.77;;;22.03;;
13743;SDS011;6943;52.368;9.966;2023-02-21T06:05:42;31.57;;;22.80;;
13743;SDS011;6943;52.368;9.966;2023-02-21T06:08:07;31.87;;;22.60;;
13743;SDS011;6943;52.368;9.966;2023-02-21T06:10:34;35.57;;;22.53;;
13743;SDS011;6943;52.368;9.966;2023-02-21T06:12:59;35.53;;;23.43;;
13743;SDS011;6943;52.368;9.966;2023-02-21T06:15:25;35.33;;;23.30;;
13743;SDS011;6943;52.368;9.966;2023-02-21T06:17:50;32.93;;;22.83;;
13743;SDS011;6943;52.368;9.966;2023-02-21T06:20:16;35.50;;;22.60;;
13743;SDS011;6943;52.368;9.966;2023-02-21T06:22:42;36.10;;;23.83;;
13743;SDS011;6943;52.368;9.966;2023-02-21T06:25:08;36.53;;;23.90;;
13743;SDS011;6943;52.368;9.966;2023-02-21T06:27:33;34.97;;;23.70;;
13743;SDS011;6943;52.368;9.966;2023-02-21T06:29:59;32.50;;;22.57;;
13743;SDS011;6943;52.368;9.966;2023-02-21T06:32:25;32.27;;;22.77;;
13743;SDS011;6943;52.368;9.966;2023-02-21T06:34:51;36.37;;;23.50;;
13743;SDS011;6943;52.368;9.966;2023-02-21T06:37:17;36.57;;;22.97;;
13743;SDS011;6943;52.368;9.966;2023-02-21T06:39:43;35.40;;;23.30;;
13743;SDS011;6943;52.368;9.966;2023-02-21T06:42:12;33.23;;;23.13;;
13743;SDS011;6943;52.368;9.966;2023-02-21T06:44:42;36.00;;;23.63;;
13743;SDS011;6943;52.368;9.966;2023-02-21T06:47:09;34.20;;;22.43;;
13743;SDS011;6943;52.368;9.966;2023-02-21T06:49:34;33.97;;;22.87;;
13743;SDS011;6943;52.368;9.966;2023-02-21T06:52:00;34.80;;;23.67;;
13743;SDS011;6943;52.368;9.966;2023-02-21T06:54:25;38.33;;;22.80;;
13743;SDS011;6943;52.368;9.966;2023-02-21T06:56:50;34.87;;;23.30;;
13743;SDS011;6943;52.368;9.966;2023-02-21T06:59:16;37.07;;;25.00;;
13743;SDS011;6943;52.368;9.966;2023-02-21T07:01:43;40.00;;;23.63;;
13743;SDS011;6943;52.368;9.966;2023-02-21T07:04:08;35.37;;;23.87;;
13743;SDS011;6943;52.368;9.966;2023-02-21T07:06:34;40.07;;;24.83;;
13743;SDS011;6943;52.368;9.966;2023-02-21T07:09:00;37.23;;;25.03;;
13743;SDS011;6943;52.368;9.966;2023-02-21T07:11:25;35.37;;;23.93;;
13743;SDS011;6943;52.368;9.966;2023-02-21T07:13:52;35.93;;;24.40;;
13743;SDS011;6943;52.368;9.966;2023-02-21T07:16:18;38.23;;;25.13;;
13743;SDS011;6943;52.368;9.966;2023-02-21T07:18:45;37.60;;;25.20;;
13743;SDS011;6943;52.368;9.966;2023-02-21T07:21:11;38.97;;;24.63;;
13743;SDS011;6943;52.368;9.966;2023-02-21T07:23:37;33.43;;;23.93;;
13743;SDS011;6943;52.368;9.966;2023-02-21T07:26:03;36.57;;;24.10;;
13743;SDS011;6943;52.368;9.966;2023-02-21T07:28:29;36.90;;;24.23;;
13743;SDS011;6943;52.368;9.966;2023-02-21T07:30:54;37.80;;;24.73;;
13743;SDS011;6943;52.368;9.966;2023-02-21T07:33:20;38.40;;;25.20;;
13743;SDS011;6943;52.368;9.966;2023-02-21T07:35:45;36.73;;;25.30;;
13743;SDS011;6943;52.368;9.966;2023-02-21T07:38:20;38.17;;;24.47;;
13743;SDS011;6943;52.368;9.966;2023-02-21T07:40:47;37.77;;;24.70;;
13743;SDS011;6943;52.368;9.966;2023-02-21T07:43:13;33.10;;;25.13;;
13743;SDS011;6943;52.368;9.966;2023-02-21T07:45:39;34.57;;;23.57;;
13743;SDS011;6943;52.368;9.966;2023-02-21T07:48:04;40.70;;;24.63;;
13743;SDS011;6943;52.368;9.966;2023-02-21T07:50:30;38.63;;;23.90;;
13743;SDS011;6943;52.368;9.966;2023-02-21T07:52:55;40.23;;;25.63;;
13743;SDS011;6943;52.368;9.966;2023-02-21T07:55:23;36.90;;;24.60;;
13743;SDS011;6943;52.368;9.966;2023-02-21T07:57:49;37.13;;;24.97;;
13743;SDS011;6943;52.368;9.966;2023-02-21T08:00:14;33.97;;;23.33;;
13743;SDS011;6943;52.368;9.966;2023-02-21T08:02:40;39.00;;;24.07;;
13743;SDS011;6943;52.368;9.966;2023-02-21T08:05:06;35.40;;;24.77;;
13743;SDS011;6943;52.368;9.966;2023-02-21T08:07:32;37.93;;;24.40;;
13743;SDS011;6943;52.368;9.966;2023-02-21T08:09:58;37.93;;;24.07;;
13743;SDS011;6943;52.368;9.966;2023-02-21T08:12:23;39.80;;;24.23;;
13743;SDS011;6943;52.368;9.966;2023-02-21T08:14:49;41.77;;;25.47;;
13743;SDS011;6943;52.368;9.966;2023-02-21T08:17:14;37.63;;;23.70;;
13743;SDS011;6943;52.368;9.966;2023-02-21T08:19:40;32.90;;;23.70;;
13743;SDS011;6943;52.368;9.966;2023-02-21T08:22:05;33.93;;;23.43;;
13743;SDS011;6943;52.368;9.966;2023-02-21T08:24:31;35.53;;;24.70;;
13743;SDS011;6943;52.368;9.966;2023-02-21T08:26:56;37.57;;;25.63;;
13743;SDS011;6943;52.368;9.966;2023-02-21T08:29:22;40.10;;;24.57;;
13743;SDS011;6943;52.368;9.966;2023-02-21T08:31:47;39.00;;;24.70;;
13743;SDS011;6943;52.368;9.966;2023-02-21T08:34:13;40.87;;;26.10;;
13743;SDS011;6943;52.368;9.966;2023-02-21T08:36:39;39.50;;;26.13;;
13743;SDS011;6943;52.368;9.966;2023-02-21T08:39:06;37.40;;;24.87;;
13743;SDS011;6943;52.368;9.966;2023-02-21T08:44:06;38.80;;;24.53;;
13743;SDS011;6943;52.368;9.966;2023-02-21T08:46:32;38.83;;;26.30;;
13743;SDS011;6943;52.368;9.966;2023-02-21T08:48:59;38.27;;;25.03;;
13743;SDS011;6943;52.368;9.966;2023-02-21T08:51:28;41.13;;;26.10;;
13743;SDS011;6943;52.368;9.966;2023-02-21T08:53:55;38.10;;;26.23;;
13743;SDS011;6943;52.368;9.966;2023-02-21T08:56:21;40.50;;;25.90;;
13743;SDS011;6943;52.368;9.966;2023-02-21T08:58:48;37.47;;;25.47;;
13743;SDS011;6943;52.368;9.966;2023-02-21T09:01:14;41.90;;;25.40;;
13743;SDS011;6943;52.368;9.966;2023-02-21T09:03:40;37.37;;;25.80;;
13743;SDS011;6943;52.368;9.966;2023-02-21T09:06:06;38.70;;;24.97;;
13743;SDS011;6943;52.368;9.966;2023-02-21T09:08:32;38.53;;;24.63;;
13743;SDS011;6943;52.368;9.966;2023-02-21T09:10:58;33.90;;;23.83;;
13743;SDS011;6943;52.368;9.966;2023-02-21T09:13:25;40.53;;;26.70;;
13743;SDS011;6943;52.368;9.966;2023-02-21T09:15:51;35.17;;;24.37;;
13743;SDS011;6943;52.368;9.966;2023-02-21T09:18:17;37.50;;;25.07;;
13743;SDS011;6943;52.368;9.966;2023-02-21T09:20:42;33.00;;;22.43;;
13743;SDS011;6943;52.368;9.966;2023-02-21T09:23:09;34.83;;;23.00;;
13743;SDS011;6943;52.368;9.966;2023-02-21T09:25:35;33.43;;;22.83;;
13743;SDS011;6943;52.368;9.966;2023-02-21T09:28:01;29.93;;;21.43;;
13743;SDS011;6943;52.368;9.966;2023-02-21T09:30:26;32.73;;;22.40;;
13743;SDS011;6943;52.368;9.966;2023-02-21T09:32:54;32.70;;;22.97;;
13743;SDS011;6943;52.368;9.966;2023-02-21T09:35:20;31.63;;;21.47;;
13743;SDS011;6943;52.368;9.966;2023-02-21T09:37:46;33.73;;;23.13;;
13743;SDS011;6943;52.368;9.966;2023-02-21T09:40:28;36.40;;;23.80;;
13743;SDS011;6943;52.368;9.966;2023-02-21T09:43:00;34.60;;;22.23;;
13743;SDS011;6943;52.368;9.966;2023-02-21T09:45:30;33.90;;;22.77;;
13743;SDS011;6943;52.368;9.966;2023-02-21T09:47:58;32.50;;;22.87;;
13743;SDS011;6943;52.368;9.966;2023-02-21T09:50:32;33.13;;;22.63;;
13743;SDS011;6943;52.368;9.966;2023-02-21T09:53:08;32.03;;;22.53;;
13743;SDS011;6943;52.368;9.966;2023-02-21T09:55:37;35.27;;;22.73;;
13743;SDS011;6943;52.368;9.966;2023-02-21T09:58:13;33.77;;;23.33;;
13743;SDS011;6943;52.368;9.966;2023-02-21T10:00:42;33.53;;;23.10;;
13743;SDS011;6943;52.368;9.966;2023-02-21T10:03:25;33.67;;;24.50;;
13743;SDS011;6943;52.368;9.966;2023-02-21T10:17:14;40.07;;;22.63;;
13743;SDS011;6943;52.368;9.966;2023-02-21T10:19:52;32.03;;;21.00;;
13743;SDS011;6943;52.368;9.966;2023-02-21T10:22:22;30.37;;;20.63;;
13743;SDS011;6943;52.368;9.966;2023-02-21T10:24:52;34.30;;;21.47;;
13743;SDS011;6943;52.368;9.966;2023-02-21T10:27:19;31.17;;;20.03;;
13743;SDS011;6943;52.368;9.966;2023-02-21T10:29:51;32.83;;;22.20;;
13743;SDS011;6943;52.368;9.966;2023-02-21T10:32:25;32.20;;;21.03;;
13743;SDS011;6943;52.368;9.966;2023-02-21T10:34:52;31.33;;;20.63;;
13743;SDS011;6943;52.368;9.966;2023-02-21T10:37:34;31.90;;;20.47;;
13743;SDS011;6943;52.368;9.966;2023-02-21T10:42:56;29.17;;;20.63;;
13743;SDS011;6943;52.368;9.966;2023-02-21T10:45:36;29.60;;;19.87;;
13743;SDS011;6943;52.368;9.966;2023-02-21T10:48:23;29.10;;;20.33;;
13743;SDS011;6943;52.368;9.966;2023-02-21T10:53:31;27.03;;;19.37;;
13743;SDS011;6943;52.368;9.966;2023-02-21T10:58:45;29.47;;;19.43;;
13743;SDS011;6943;52.368;9.966;2023-02-21T11:01:16;27.77;;;19.20;;
13743;SDS011;6943;52.368;9.966;2023-02-21T11:03:47;27.10;;;19.27;;
13743;SDS011;6943;52.368;9.966;2023-02-21T11:06:23;28.47;;;18.80;;
13743;SDS011;6943;52.368;9.966;2023-02-21T11:09:00;25.47;;;18.03;;
13743;SDS011;6943;52.368;9.966;2023-02-21T11:11:46;25.17;;;18.33;;
13743;SDS011;6943;52.368;9.966;2023-02-21T11:14:18;25.67;;;17.77;;
13743;SDS011;6943;52.368;9.966;2023-02-21T11:17:02;27.17;;;19.53;;
13743;SDS011;6943;52.368;9.966;2023-02-21T11:22:13;26.37;;;18.50;;
13743;SDS011;6943;52.368;9.966;2023-02-21T11:24:44;28.53;;;18.80;;
13743;SDS011;6943;52.368;9.966;2023-02-21T11:27:24;25.13;;;17.20;;
13743;SDS011;6943;52.368;9.966;2023-02-21T11:29:51;26.93;;;17.87;;
13743;SDS011;6943;52.368;9.966;2023-02-21T11:32:20;25.73;;;17.47;;
13743;SDS011;6943;52.368;9.966;2023-02-21T11:34:49;27.60;;;18.03;;
13743;SDS011;6943;52.368;9.966;2023-02-21T11:37:15;27.90;;;18.83;;
13743;SDS011;6943;52.368;9.966;2023-02-21T11:39:41;22.67;;;17.13;;
13743;SDS011;6943;52.368;9.966;2023-02-21T11:42:25;25.30;;;17.53;;
13743;SDS011;6943;52.368;9.966;2023-02-21T11:45:10;23.60;;;16.77;;
13743;SDS011;6943;52.368;9.966;2023-02-21T11:47:44;25.53;;;17.70;;
13743;SDS011;6943;52.368;9.966;2023-02-21T11:53:03;24.23;;;17.23;;
13743;SDS011;6943;52.368;9.966;2023-02-21T11:55:36;21.70;;;15.03;;
13743;SDS011;6943;52.368;9.966;2023-02-21T11:58:14;24.30;;;16.50;;
13743;SDS011;6943;52.368;9.966;2023-02-21T12:00:50;20.77;;;15.93;;
13743;SDS011;6943;52.368;9.966;2023-02-21T12:06:20;22.30;;;15.60;;
13743;SDS011;6943;52.368;9.966;2023-02-21T12:09:06;21.57;;;15.57;;
13743;SDS011;6943;52.368;9.966;2023-02-21T12:11:44;20.27;;;14.93;;
13743;SDS011;6943;52.368;9.966;2023-02-21T12:17:24;21.87;;;15.17;;
13743;SDS011;6943;52.368;9.966;2023-02-21T12:20:15;20.97;;;15.83;;
13743;SDS011;6943;52.368;9.966;2023-02-21T12:23:06;18.13;;;13.70;;
13743;SDS011;6943;52.368;9.966;2023-02-21T12:25:51;18.37;;;14.03;;
13743;SDS011;6943;52.368;9.966;2023-02-21T12:37:29;20.17;;;14.57;;
13743;SDS011;6943;52.368;9.966;2023-02-21T12:40:19;20.63;;;14.60;;
13743;SDS011;6943;52.368;9.966;2023-02-21T12:48:11;19.00;;;14.03;;
13743;SDS011;6943;52.368;9.966;2023-02-21T12:50:54;18.17;;;13.73;;
13743;SDS011;6943;52.368;9.966;2023-02-21T12:53:41;18.27;;;14.03;;
13743;SDS011;6943;52.368;9.966;2023-02-21T12:56:15;19.33;;;13.67;;
13743;SDS011;6943;52.368;9.966;2023-02-21T12:59:07;24.23;;;15.70;;
13743;SDS011;6943;52.368;9.966;2023-02-21T13:01:51;22.10;;;15.13;;
13743;SDS011;6943;52.368;9.966;2023-02-21T13:09:39;19.80;;;13.87;;
13743;SDS011;6943;52.368;9.966;2023-02-21T13:12:22;16.17;;;12.63;;
13743;SDS011;6943;52.368;9.966;2023-02-21T13:14:56;17.37;;;13.13;;
13743;SDS011;6943;52.368;9.966;2023-02-21T13:17:25;18.33;;;13.57;;
13743;SDS011;6943;52.368;9.966;2023-02-21T13:19:58;16.10;;;12.70;;
13743;SDS011;6943;52.368;9.966;2023-02-21T13:22:30;15.40;;;12.70;;
13743;SDS011;6943;52.368;9.966;2023-02-21T13:25:32;17.67;;;12.10;;
13743;SDS011;6943;52.368;9.966;2023-02-21T13:28:11;17.27;;;12.80;;
13743;SDS011;6943;52.368;9.966;2023-02-21T13:30:47;17.77;;;12.80;;
13743;SDS011;6943;52.368;9.966;2023-02-21T13:33:26;14.00;;;11.80;;
13743;SDS011;6943;52.368;9.966;2023-02-21T13:36:14;15.97;;;11.00;;
13743;SDS011;6943;52.368;9.966;2023-02-21T13:38:40;13.30;;;11.23;;
13743;SDS011;6943;52.368;9.966;2023-02-21T13:41:08;16.77;;;11.73;;
13743;SDS011;6943;52.368;9.966;2023-02-21T13:43:44;14.90;;;11.87;;
13743;SDS011;6943;52.368;9.966;2023-02-21T13:46:23;21.00;;;12.17;;
13743;SDS011;6943;52.368;9.966;2023-02-21T13:51:52;14.50;;;12.13;;
13743;SDS011;6943;52.368;9.966;2023-02-21T13:54:21;15.97;;;11.83;;
13743;SDS011;6943;52.368;9.966;2023-02-21T13:56:48;14.30;;;11.40;;
13743;SDS011;6943;52.368;9.966;2023-02-21T13:59:30;15.63;;;11.27;;
13743;SDS011;6943;52.368;9.966;2023-02-21T14:02:14;13.07;;;10.80;;
13743;SDS011;6943;52.368;9.966;2023-02-21T14:07:17;17.53;;;12.57;;
13743;SDS011;6943;52.368;9.966;2023-02-21T14:10:02;16.43;;;11.63;;
13743;SDS011;6943;52.368;9.966;2023-02-21T14:12:29;15.83;;;11.93;;
13743;SDS011;6943;52.368;9.966;2023-02-21T14:15:03;15.13;;;11.70;;
13743;SDS011;6943;52.368;9.966;2023-02-21T14:17:30;16.23;;;11.80;;
13743;SDS011;6943;52.368;9.966;2023-02-21T14:19:56;16.90;;;12.40;;
13743;SDS011;6943;52.368;9.966;2023-02-21T14:22:26;16.60;;;12.47;;
13743;SDS011;6943;52.368;9.966;2023-02-21T14:27:50;17.93;;;13.33;;
13743;SDS011;6943;52.368;9.966;2023-02-21T14:30:31;18.80;;;13.80;;
13743;SDS011;6943;52.368;9.966;2023-02-21T14:33:07;17.37;;;12.43;;
13743;SDS011;6943;52.368;9.966;2023-02-21T14:35:53;18.47;;;12.67;;
13743;SDS011;6943;52.368;9.966;2023-02-21T14:38:24;21.70;;;14.63;;
13743;SDS011;6943;52.368;9.966;2023-02-21T14:40:57;18.30;;;13.73;;
13743;SDS011;6943;52.368;9.966;2023-02-21T14:55:24;23.50;;;15.87;;
13743;SDS011;6943;52.368;9.966;2023-02-21T14:58:26;21.50;;;15.67;;
13743;SDS011;6943;52.368;9.966;2023-02-21T15:03:45;22.33;;;14.97;;
13743;SDS011;6943;52.368;9.966;2023-02-21T15:06:17;22.50;;;16.37;;
13743;SDS011;6943;52.368;9.966;2023-02-21T15:08:46;20.23;;;15.20;;
13743;SDS011;6943;52.368;9.966;2023-02-21T15:11:35;21.30;;;15.17;;
13743;SDS011;6943;52.368;9.966;2023-02-21T15:16:48;24.37;;;15.40;;
13743;SDS011;6943;52.368;9.966;2023-02-21T15:19:18;22.90;;;16.23;;
13743;SDS011;6943;52.368;9.966;2023-02-21T15:22:04;19.57;;;14.70;;
13743;SDS011;6943;52.368;9.966;2023-02-21T15:27:21;20.77;;;15.03;;
13743;SDS011;6943;52.368;9.966;2023-02-21T15:30:00;24.97;;;16.30;;
13743;SDS011;6943;52.368;9.966;2023-02-21T15:32:38;23.30;;;15.40;;
13743;SDS011;6943;52.368;9.966;2023-02-21T15:35:05;21.83;;;15.20;;
13743;SDS011;6943;52.368;9.966;2023-02-21T15:37:34;23.27;;;15.60;;
13743;SDS011;6943;52.368;9.966;2023-02-21T15:42:56;24.33;;;16.83;;
13743;SDS011;6943;52.368;9.966;2023-02-21T15:47:52;24.30;;;17.20;;
13743;SDS011;6943;52.368;9.966;2023-02-21T15:50:40;28.30;;;18.20;;
13743;SDS011;6943;52.368;9.966;2023-02-21T15:55:43;25.73;;;17.27;;
13743;SDS011;6943;52.368;9.966;2023-02-21T15:58:13;27.23;;;17.60;;
13743;SDS011;6943;52.368;9.966;2023-02-21T16:00:45;28.57;;;16.97;;
13743;SDS011;6943;52.368;9.966;2023-02-21T16:08:37;24.10;;;16.07;;
13743;SDS011;6943;52.368;9.966;2023-02-21T16:11:14;29.03;;;17.67;;
13743;SDS011;6943;52.368;9.966;2023-02-21T16:13:40;25.30;;;15.70;;
13743;SDS011;6943;52.368;9.966;2023-02-21T16:16:06;25.20;;;16.33;;
13743;SDS011;6943;52.368;9.966;2023-02-21T16:18:33;23.13;;;15.20;;
13743;SDS011;6943;52.368;9.966;2023-02-21T16:20:59;22.83;;;15.20;;
13743;SDS011;6943;52.368;9.966;2023-02-21T16:23:30;24.53;;;16.33;;
13743;SDS011;6943;52.368;9.966;2023-02-21T16:28:40;24.63;;;15.50;;
13743;SDS011;6943;52.368;9.966;2023-02-21T16:31:08;23.70;;;15.10;;
13743;SDS011;6943;52.368;9.966;2023-02-21T16:33:39;21.13;;;13.97;;
13743;SDS011;6943;52.368;9.966;2023-02-21T16:36:09;22.17;;;13.87;;
13743;SDS011;6943;52.368;9.966;2023-02-21T16:38:45;23.57;;;14.23;;
13743;SDS011;6943;52.368;9.966;2023-02-21T16:41:11;20.10;;;13.97;;
13743;SDS011;6943;52.368;9.966;2023-02-21T16:43:38;20.53;;;13.73;;
13743;SDS011;6943;52.368;9.966;2023-02-21T16:46:03;21.37;;;13.10;;
13743;SDS011;6943;52.368;9.966;2023-02-21T16:48:29;17.53;;;12.10;;
13743;SDS011;6943;52.368;9.966;2023-02-21T16:51:02;21.70;;;14.67;;
13743;SDS011;6943;52.368;9.966;2023-02-21T16:53:29;18.53;;;12.73;;
13743;SDS011;6943;52.368;9.966;2023-02-21T16:55:55;20.57;;;13.80;;
13743;SDS011;6943;52.368;9.966;2023-02-21T16:58:24;17.60;;;11.87;;
13743;SDS011;6943;52.368;9.966;2023-02-21T17:00:57;17.83;;;12.40;;
13743;SDS011;6943;52.368;9.966;2023-02-21T17:03:25;21.43;;;14.17;;
13743;SDS011;6943;52.368;9.966;2023-02-21T17:05:52;18.30;;;13.07;;